createdAt,value
2023-04-15T00:02:19.737Z,5.70
2023-04-15T00:04:49.146Z,5.70
2023-04-15T00:07:18.103Z,5.70
2023-04-15T00:09:46.121Z,5.80
2023-04-15T00:12:13.749Z,5.80
2023-04-15T00:14:41.591Z,5.80
2023-04-15T00:19:37.120Z,5.80
2023-04-15T00:22:04.937Z,5.90
2023-04-15T00:24:32.759Z,5.80
2023-04-15T00:27:00.617Z,5.90
2023-04-15T00:29:28.443Z,5.80
2023-04-15T00:31:56.985Z,5.80
2023-04-15T00:34:24.910Z,5.80
2023-04-15T00:36:52.690Z,5.80
2023-04-15T00:39:20.662Z,5.90
2023-04-15T00:41:49.399Z,5.90
2023-04-15T00:46:49.045Z,5.90
2023-04-15T00:49:18.722Z,5.80
2023-04-15T00:51:46.461Z,5.80
2023-04-15T00:54:14.286Z,5.90
2023-04-15T00:56:43.038Z,5.90
2023-04-15T00:59:11.130Z,5.90
2023-04-15T01:01:39.038Z,6.00
2023-04-15T01:04:07.381Z,6.00
2023-04-15T01:06:35.163Z,6.10
2023-04-15T01:09:03.419Z,6.10
2023-04-15T01:11:36.020Z,6.10
2023-04-15T01:14:04.536Z,6.20
2023-04-15T01:16:32.261Z,6.10
2023-04-15T01:21:28.318Z,6.20
2023-04-15T01:23:56.980Z,6.20
2023-04-15T01:26:25.422Z,6.20
2023-04-15T01:31:22.224Z,6.10
2023-04-15T01:33:49.746Z,6.20
2023-04-15T01:36:37.165Z,6.10
2023-04-15T01:39:05.678Z,6.10
2023-04-15T01:44:03.433Z,6.10
2023-04-15T01:46:32.600Z,6.00
2023-04-15T01:49:02.776Z,6.00
2023-04-15T01:51:33.469Z,6.00
2023-04-15T01:54:02.426Z,6.00
2023-04-15T01:56:32.235Z,5.90
2023-04-15T01:59:01.949Z,5.90
2023-04-15T02:01:31.171Z,5.80
2023-04-15T02:04:01.846Z,5.70
2023-04-15T02:06:33.388Z,5.80
2023-04-15T02:09:02.449Z,5.70
2023-04-15T02:14:01.037Z,5.70
2023-04-15T02:16:29.973Z,5.60
2023-04-15T02:19:00.019Z,5.50
2023-04-15T02:21:29.390Z,5.50
2023-04-15T02:23:58.237Z,5.40
2023-04-15T02:26:27.227Z,5.30
2023-04-15T02:28:56.608Z,5.30
2023-04-15T02:31:26.066Z,5.20
2023-04-15T02:33:55.265Z,5.30
2023-04-15T02:36:24.288Z,5.20
2023-04-15T02:38:53.099Z,5.20
2023-04-15T02:43:57.186Z,5.10
2023-04-15T02:46:27.564Z,5.10
2023-04-15T02:48:56.760Z,5.10
2023-04-15T02:51:32.177Z,5.10
2023-04-15T02:54:01.633Z,5.10
2023-04-15T02:56:30.987Z,5.10
2023-04-15T02:59:00.482Z,5.00
2023-04-15T03:01:29.670Z,5.10
2023-04-15T03:03:58.798Z,5.10
2023-04-15T03:06:27.810Z,5.10
2023-04-15T03:08:57.041Z,5.00
2023-04-15T03:11:27.344Z,5.00
2023-04-15T03:19:03.360Z,4.70
2023-04-15T03:24:02.405Z,4.50
2023-04-15T03:26:32.300Z,4.50
2023-04-15T03:31:34.029Z,4.40
2023-04-15T03:36:33.171Z,4.20
2023-04-15T03:39:04.880Z,4.10
2023-04-15T03:41:34.036Z,4.20
2023-04-15T03:44:03.215Z,4.20
2023-04-15T03:49:02.208Z,4.20
2023-04-15T03:54:00.600Z,4.30
2023-04-15T03:56:29.452Z,4.40
2023-04-15T03:58:58.542Z,4.40
2023-04-15T04:01:27.903Z,4.50
2023-04-15T04:03:56.821Z,4.50
2023-04-15T04:06:26.699Z,4.60
2023-04-15T04:08:56.010Z,4.50
2023-04-15T04:11:24.915Z,4.60
2023-04-15T04:13:53.942Z,4.50
2023-04-15T04:16:22.926Z,4.50
2023-04-15T04:18:51.837Z,4.50
2023-04-15T04:21:21.808Z,4.50
2023-04-15T04:23:51.351Z,4.50
2023-04-15T04:31:19.370Z,4.80
2023-04-15T04:36:17.601Z,4.30
2023-04-15T04:38:46.860Z,4.30
2023-04-15T04:41:16.046Z,4.30
2023-04-15T04:43:44.797Z,4.30
2023-04-15T04:51:12.776Z,4.20
2023-04-15T04:53:43.368Z,4.10
2023-04-15T04:58:41.722Z,4.00
2023-04-15T05:01:10.721Z,4.00
2023-04-15T05:06:09.238Z,4.00
2023-04-15T05:08:39.926Z,3.90
2023-04-15T05:16:08.520Z,3.80
2023-04-15T05:18:38.128Z,3.80
2023-04-15T05:21:08.049Z,3.70
2023-04-15T05:23:37.720Z,3.60
2023-04-15T05:26:06.789Z,3.60
2023-04-15T05:28:35.908Z,3.50
2023-04-15T05:31:06.216Z,3.50
2023-04-15T05:38:33.942Z,3.40
2023-04-15T05:41:02.754Z,3.40
2023-04-15T05:43:31.813Z,3.40
2023-04-15T05:46:00.645Z,3.30
2023-04-15T05:48:29.492Z,3.30
2023-04-15T05:50:58.786Z,3.30
2023-04-15T05:53:27.624Z,3.20
2023-04-15T05:55:56.450Z,3.30
2023-04-15T05:58:25.477Z,3.20
2023-04-15T06:00:54.312Z,3.20
2023-04-15T06:03:23.827Z,3.20
2023-04-15T06:05:52.664Z,3.20
2023-04-15T06:10:51.142Z,3.20
2023-04-15T06:13:20.088Z,3.10
2023-04-15T06:15:49.550Z,4.90
2023-04-15T06:18:18.403Z,3.10
2023-04-15T06:28:14.764Z,3.20
2023-04-15T06:35:42.156Z,3.30
2023-04-15T06:38:11.109Z,3.80
2023-04-15T06:40:39.963Z,3.50
2023-04-15T06:43:09.249Z,3.60
2023-04-15T06:45:38.272Z,3.60
2023-04-15T06:48:07.328Z,3.70
2023-04-15T06:50:36.219Z,3.70
2023-04-15T06:55:34.564Z,4.00
2023-04-15T06:58:03.582Z,4.10
2023-04-15T07:00:33.822Z,4.10
2023-04-15T07:03:03.862Z,4.20
2023-04-15T07:08:03.022Z,4.20
2023-04-15T07:10:34.441Z,4.30
2023-04-15T07:13:04.618Z,4.30
2023-04-15T07:15:33.814Z,4.40
2023-04-15T07:18:02.733Z,4.40
2023-04-15T07:20:31.833Z,4.50
2023-04-15T07:23:00.579Z,4.60
2023-04-15T07:25:29.622Z,4.70
2023-04-15T07:27:58.703Z,4.80
2023-04-15T07:32:56.711Z,5.00
2023-04-15T07:35:26.666Z,5.10
2023-04-15T07:37:55.616Z,5.30
2023-04-15T07:42:54.630Z,5.50
2023-04-15T07:45:23.407Z,5.60
2023-04-15T07:47:52.524Z,5.70
2023-04-15T07:50:21.806Z,5.80
2023-04-15T07:52:52.450Z,5.90
2023-04-15T07:55:23.455Z,6.10
2023-04-15T07:57:52.421Z,6.20
2023-04-15T08:00:21.307Z,6.20
2023-04-15T08:02:50.360Z,6.40
2023-04-15T08:10:18.266Z,6.70
2023-04-15T08:12:49.728Z,6.80
2023-04-15T08:15:21.070Z,6.90
2023-04-15T08:17:49.878Z,7.00
2023-04-15T08:20:19.730Z,7.10
2023-04-15T08:22:52.132Z,7.10
2023-04-15T08:25:21.314Z,7.20
2023-04-15T08:30:20.381Z,7.20
2023-04-15T08:32:51.214Z,7.40
2023-04-15T08:35:20.109Z,7.40
2023-04-15T08:37:48.975Z,7.50
2023-04-15T08:40:17.882Z,7.60
2023-04-15T08:42:50.079Z,7.60
2023-04-15T08:45:19.471Z,7.80
2023-04-15T08:47:51.750Z,7.80
2023-04-15T08:50:21.128Z,7.90
2023-04-15T08:52:50.061Z,7.90
2023-04-15T08:55:20.684Z,8.00
2023-04-15T08:57:49.641Z,8.10
2023-04-15T09:00:19.004Z,8.10
2023-04-15T09:07:47.678Z,8.30
2023-04-15T09:10:16.657Z,8.50
2023-04-15T09:12:45.611Z,8.50
2023-04-15T09:17:45.710Z,8.70
2023-04-15T09:20:16.294Z,8.70
2023-04-15T09:22:47.124Z,9.50
2023-04-15T09:25:16.475Z,9.10
2023-04-15T09:27:56.925Z,9.20
2023-04-15T09:30:26.569Z,9.50
2023-04-15T09:33:02.429Z,9.60
2023-04-15T09:35:31.617Z,9.70
2023-04-15T09:38:09.954Z,9.90
2023-04-15T09:40:42.599Z,10.00
2023-04-15T09:43:14.458Z,10.30
2023-04-15T09:45:53.224Z,10.40
2023-04-15T09:48:31.193Z,10.50
2023-04-15T09:51:01.522Z,10.70
2023-04-15T09:53:34.648Z,10.70
2023-04-15T09:56:04.431Z,10.70
2023-04-15T09:58:35.303Z,10.70
2023-04-15T10:01:05.880Z,10.70
2023-04-15T10:03:39.039Z,10.60
2023-04-15T10:06:09.212Z,10.60
2023-04-15T10:08:39.230Z,10.60
2023-04-15T10:11:08.697Z,10.70
2023-04-15T10:13:38.939Z,10.80
2023-04-15T10:16:19.497Z,10.90
2023-04-15T10:18:54.670Z,11.10
2023-04-15T10:21:24.016Z,11.20
2023-04-15T10:23:52.940Z,11.20
2023-04-15T10:26:22.229Z,11.40
2023-04-15T10:28:52.401Z,11.60
2023-04-15T10:31:21.708Z,11.60
2023-04-15T10:33:52.132Z,11.80
2023-04-15T10:36:21.491Z,11.90
2023-04-15T10:38:50.309Z,12.00
2023-04-15T10:41:27.985Z,12.10
2023-04-15T10:44:01.163Z,12.10
2023-04-15T10:46:44.075Z,12.10
2023-04-15T10:49:17.668Z,12.10
2023-04-15T10:51:53.011Z,12.10
2023-04-15T10:54:24.862Z,12.10
2023-04-15T10:57:06.594Z,12.20
2023-04-15T11:00:11.298Z,12.30
2023-04-15T11:02:44.661Z,12.50
2023-04-15T11:05:18.248Z,12.60
2023-04-15T11:07:47.199Z,12.60
2023-04-15T11:10:20.892Z,12.50
2023-04-15T11:12:57.581Z,12.50
2023-04-15T11:15:40.323Z,12.40
2023-04-15T11:18:16.617Z,12.40
2023-04-15T11:21:03.417Z,12.40
2023-04-15T11:23:34.166Z,12.30
2023-04-15T11:26:06.944Z,12.30
2023-04-15T11:28:38.692Z,12.40
2023-04-15T11:31:12.764Z,12.40
2023-04-15T11:33:56.967Z,12.40
2023-04-15T11:36:30.167Z,12.40
2023-04-15T11:38:59.892Z,12.40
2023-04-15T11:41:28.729Z,12.70
2023-04-15T11:43:57.673Z,12.90
2023-04-15T11:46:31.716Z,13.00
2023-04-15T11:49:00.785Z,13.30
2023-04-15T11:51:35.960Z,13.40
2023-04-15T11:54:04.180Z,13.50
2023-04-15T11:56:32.093Z,14.10
2023-04-15T12:01:44.053Z,14.50
2023-04-15T12:04:20.151Z,14.60
2023-04-15T12:06:50.064Z,14.80
2023-04-15T12:11:45.491Z,13.20
2023-04-15T12:14:15.863Z,14.90
2023-04-15T12:16:48.657Z,14.90
2023-04-15T12:19:23.359Z,14.80
2023-04-15T12:21:52.312Z,14.80
2023-04-15T12:24:24.703Z,14.80
2023-04-15T12:26:57.729Z,15.00
2023-04-15T12:29:29.849Z,15.00
2023-04-15T12:32:08.536Z,14.90
2023-04-15T12:34:40.660Z,15.00
2023-04-15T12:37:10.109Z,15.20
2023-04-15T12:39:42.748Z,15.20
2023-04-15T12:42:11.362Z,14.90
2023-04-15T12:44:39.409Z,14.90
2023-04-15T12:47:08.208Z,15.00
2023-04-15T12:49:35.924Z,15.00
2023-04-15T12:52:03.935Z,15.10
2023-04-15T12:54:31.703Z,15.10
2023-04-15T12:56:59.933Z,15.20
2023-04-15T12:59:27.498Z,15.20
2023-04-15T13:01:55.513Z,15.20
2023-04-15T13:04:23.450Z,15.10
2023-04-15T13:06:51.729Z,15.10
2023-04-15T13:09:19.394Z,15.00
2023-04-15T13:11:46.975Z,15.00
2023-04-15T13:14:14.829Z,14.90
2023-04-15T13:16:42.395Z,14.90
2023-04-15T13:19:10.070Z,14.80
2023-04-15T13:21:38.025Z,14.70
2023-04-15T13:24:07.606Z,14.60
2023-04-15T13:26:36.045Z,14.20
2023-04-15T13:29:05.777Z,14.00
2023-04-15T13:31:33.632Z,14.00
2023-04-15T13:34:01.325Z,13.90
2023-04-15T13:41:41.296Z,13.50
2023-04-15T13:44:08.919Z,13.50
2023-04-15T13:46:38.091Z,13.60
2023-04-15T13:49:06.963Z,13.70
2023-04-15T13:51:36.956Z,13.80
2023-04-15T13:54:04.951Z,13.90
2023-04-15T13:56:33.095Z,13.90
2023-04-15T13:59:02.290Z,13.90
2023-04-15T14:01:30.160Z,13.80
2023-04-15T14:03:57.855Z,13.80
2023-04-15T14:06:26.250Z,13.80
2023-04-15T14:08:54.938Z,13.80
2023-04-15T14:11:22.596Z,13.80
2023-04-15T14:16:18.111Z,13.80
2023-04-15T14:18:46.475Z,13.80
2023-04-15T14:21:14.113Z,13.80
2023-04-15T14:23:41.630Z,13.90
2023-04-15T14:26:09.266Z,13.90
2023-04-15T14:28:38.574Z,14.10
2023-04-15T14:31:07.523Z,14.20
2023-04-15T14:33:35.123Z,14.20
2023-04-15T14:36:02.855Z,14.30
2023-04-15T14:38:31.087Z,14.20
2023-04-15T14:40:58.876Z,14.10
2023-04-15T14:43:26.372Z,14.10
2023-04-15T14:45:54.143Z,14.10
2023-04-15T14:48:22.109Z,14.30
2023-04-15T14:50:49.707Z,14.50
2023-04-15T14:53:17.286Z,14.80
2023-04-15T14:55:45.668Z,15.00
2023-04-15T14:58:13.176Z,15.00
2023-04-15T15:00:42.129Z,15.30
2023-04-15T15:03:14.144Z,15.40
2023-04-15T15:05:44.809Z,15.50
2023-04-15T15:08:13.506Z,15.50
2023-04-15T15:10:49.458Z,15.50
2023-04-15T15:13:18.786Z,15.50
2023-04-15T15:15:46.633Z,15.60
2023-04-15T15:18:14.159Z,15.70
2023-04-15T15:20:41.705Z,15.90
2023-04-15T15:23:09.754Z,16.00
2023-04-15T15:25:37.414Z,16.30
2023-04-15T15:28:05.720Z,16.60
2023-04-15T15:30:33.398Z,16.70
2023-04-15T15:33:01.013Z,16.70
2023-04-15T15:35:28.645Z,17.10
2023-04-15T15:37:56.492Z,17.10
2023-04-15T15:40:24.253Z,17.20
2023-04-15T15:42:52.605Z,17.40
2023-04-15T15:47:48.450Z,17.70
2023-04-15T15:50:16.060Z,18.30
2023-04-15T15:52:43.597Z,19.10
2023-04-15T15:55:11.267Z,20.10
2023-04-15T15:57:38.784Z,20.10
2023-04-15T16:00:11.979Z,21.10
2023-04-15T16:03:05.039Z,21.90
2023-04-15T16:05:28.402Z,22.50
2023-04-15T16:07:55.985Z,23.10
2023-04-15T16:10:23.598Z,23.70
2023-04-15T16:12:51.021Z,24.00
2023-04-15T16:15:18.735Z,24.20
2023-04-15T16:17:46.258Z,24.50
2023-04-15T16:20:13.668Z,24.50
2023-04-15T16:22:41.413Z,24.40
2023-04-15T16:25:09.107Z,24.50
2023-04-15T16:27:50.289Z,24.80
2023-04-15T16:30:24.282Z,25.30
2023-04-15T16:32:51.761Z,25.70
2023-04-15T16:35:19.341Z,25.80
2023-04-15T16:37:46.657Z,25.60
2023-04-15T16:40:14.094Z,25.30
2023-04-15T16:42:43.730Z,25.00
2023-04-15T16:45:11.422Z,24.70
2023-04-15T16:47:38.858Z,24.70
2023-04-15T16:50:06.552Z,24.60
2023-04-15T16:52:33.906Z,24.50
2023-04-15T16:55:01.224Z,24.40
2023-04-15T16:57:38.212Z,24.40
2023-04-15T17:00:16.391Z,24.50
2023-04-15T17:02:44.009Z,24.60
2023-04-15T17:05:11.573Z,24.90
2023-04-15T17:07:38.899Z,25.20
2023-04-15T17:10:06.604Z,25.50
2023-04-15T17:12:34.118Z,25.70
2023-04-15T17:15:01.645Z,25.90
2023-04-15T17:17:31.357Z,26.20
2023-04-15T17:19:58.775Z,26.40
2023-04-15T17:22:26.313Z,26.40
2023-04-15T17:24:54.089Z,26.00
2023-04-15T17:27:22.525Z,25.50
2023-04-15T17:29:50.267Z,24.70
2023-04-15T17:32:39.495Z,23.90
2023-04-15T17:37:15.930Z,21.80
2023-04-15T17:40:04.364Z,21.10
2023-04-15T17:42:53.982Z,20.20
2023-04-15T17:45:41.438Z,19.50
2023-04-15T17:48:28.758Z,19.50
2023-04-15T17:51:17.067Z,18.90
2023-04-15T17:54:04.605Z,17.60
2023-04-15T17:56:52.201Z,17.00
2023-04-15T17:59:43.972Z,16.40
2023-04-15T18:02:32.754Z,16.10
2023-04-15T18:05:22.010Z,15.70
2023-04-15T18:08:09.814Z,15.50
2023-04-15T18:10:57.288Z,15.10
2023-04-15T18:13:45.187Z,14.90
2023-04-15T18:16:33.107Z,14.60
2023-04-15T18:19:23.212Z,14.40
2023-04-15T18:21:52.230Z,14.20
2023-04-15T18:24:19.828Z,14.00
2023-04-15T18:26:49.217Z,13.80
2023-04-15T18:29:18.680Z,13.70
2023-04-15T18:31:46.282Z,13.50
2023-04-15T18:34:13.979Z,13.40
2023-04-15T18:36:41.702Z,13.20
2023-04-15T18:39:09.625Z,13.00
2023-04-15T18:41:37.426Z,13.00
2023-04-15T18:44:04.922Z,12.70
2023-04-15T18:46:32.536Z,12.70
2023-04-15T18:49:00.116Z,12.40
2023-04-15T18:51:28.065Z,12.20
2023-04-15T18:53:55.707Z,12.10
2023-04-15T18:56:23.337Z,11.90
2023-04-15T18:59:19.417Z,11.80
2023-04-15T19:01:38.626Z,11.60
2023-04-15T19:04:06.436Z,11.50
2023-04-15T19:06:34.147Z,11.50
2023-04-15T19:09:02.459Z,11.30
2023-04-15T19:11:30.341Z,11.20
2023-04-15T19:13:57.840Z,11.10
2023-04-15T19:16:25.616Z,10.90
2023-04-15T19:18:53.472Z,10.80
2023-04-15T19:21:21.197Z,10.70
2023-04-15T19:23:50.370Z,10.60
2023-04-15T19:26:18.064Z,10.50
2023-04-15T19:28:45.620Z,10.50
2023-04-15T19:31:13.228Z,10.50
2023-04-15T19:33:40.803Z,10.40
2023-04-15T19:36:08.454Z,10.40
2023-04-15T19:38:36.972Z,10.30
2023-04-15T19:41:04.662Z,10.20
2023-04-15T19:43:33.107Z,10.20
2023-04-15T19:46:01.065Z,10.20
2023-04-15T19:48:28.773Z,10.10
2023-04-15T19:50:57.379Z,10.00
2023-04-15T19:53:25.783Z,10.00
2023-04-15T19:55:53.755Z,10.00
2023-04-15T20:00:49.491Z,9.90
2023-04-15T20:03:19.030Z,9.90
2023-04-15T20:05:47.055Z,9.90
2023-04-15T20:08:14.894Z,10.00
2023-04-15T20:10:42.591Z,10.00
2023-04-15T20:13:10.112Z,10.00
2023-04-15T20:15:37.948Z,10.00
2023-04-15T20:18:05.714Z,10.00
2023-04-15T20:20:34.883Z,10.00
2023-04-15T20:23:02.442Z,10.00
2023-04-15T20:25:30.059Z,10.00
2023-04-15T20:28:00.424Z,9.90
2023-04-15T20:35:28.321Z,10.00
2023-04-15T20:37:55.792Z,10.00
2023-04-15T20:40:23.554Z,10.00
2023-04-15T20:45:19.012Z,10.00
2023-04-15T20:47:46.830Z,10.00
2023-04-15T20:50:14.625Z,10.00
2023-04-15T20:52:42.482Z,9.90
2023-04-15T20:55:10.143Z,9.90
2023-04-15T20:57:38.012Z,9.90
2023-04-15T21:00:06.514Z,9.90
2023-04-15T21:02:34.245Z,9.90
2023-04-15T21:05:01.888Z,9.90
2023-04-15T21:07:29.610Z,9.90
2023-04-15T21:12:25.117Z,9.90
2023-04-15T21:14:52.717Z,9.90
2023-04-15T21:17:20.481Z,9.90
2023-04-15T21:19:48.160Z,9.80
2023-04-15T21:24:44.677Z,9.80
2023-04-15T21:27:12.290Z,9.70
2023-04-15T21:29:40.539Z,9.70
2023-04-15T21:32:08.827Z,9.60
2023-04-15T21:34:36.892Z,9.50
2023-04-15T21:37:04.668Z,9.50
2023-04-15T21:39:32.230Z,9.40
2023-04-15T21:41:59.835Z,9.40
2023-04-15T21:44:28.277Z,9.30
2023-04-15T21:46:56.515Z,9.30
2023-04-15T21:54:21.415Z,9.10
2023-04-15T21:56:50.078Z,7.50
2023-04-15T21:59:17.979Z,9.00
2023-04-15T22:01:45.922Z,9.00
2023-04-15T22:04:13.818Z,9.10
2023-04-15T22:06:41.480Z,9.10
2023-04-15T22:09:10.588Z,9.10
2023-04-15T22:11:39.923Z,9.20
2023-04-15T22:14:07.593Z,9.20
2023-04-15T22:16:35.137Z,9.10
2023-04-15T22:19:03.033Z,9.10
2023-04-15T22:21:30.668Z,9.10
2023-04-15T22:24:32.593Z,9.10
2023-04-15T22:26:45.970Z,9.10
2023-04-15T22:29:13.600Z,9.00
2023-04-15T22:31:41.970Z,9.00
2023-04-15T22:34:09.994Z,9.00
2023-04-15T22:36:37.533Z,9.00
2023-04-15T22:39:05.235Z,9.00
2023-04-15T22:44:01.430Z,9.00
2023-04-15T22:46:29.479Z,9.00
2023-04-15T22:48:57.176Z,9.00
2023-04-15T22:51:28.074Z,8.90
2023-04-15T22:53:56.767Z,8.90
2023-04-15T22:56:24.437Z,8.90
2023-04-15T22:58:52.687Z,8.80
2023-04-15T23:01:21.222Z,8.80
2023-04-15T23:03:56.255Z,8.60
2023-04-15T23:06:27.640Z,8.60
2023-04-15T23:08:55.368Z,8.50
2023-04-15T23:11:22.988Z,8.50
2023-04-15T23:13:50.882Z,8.40
2023-04-15T23:16:18.591Z,8.40
2023-04-15T23:18:46.594Z,8.40
2023-04-15T23:21:14.477Z,8.40
2023-04-15T23:23:41.946Z,8.40
2023-04-15T23:26:09.476Z,8.40
2023-04-15T23:28:37.001Z,8.40
2023-04-15T23:31:04.842Z,9.30
2023-04-15T23:33:32.674Z,8.60
2023-04-15T23:36:00.329Z,8.60
2023-04-15T23:38:27.853Z,8.70
2023-04-15T23:40:55.363Z,8.70
2023-04-15T23:43:22.956Z,8.60
2023-04-15T23:48:18.366Z,8.70
2023-04-15T23:50:45.892Z,8.70
2023-04-15T23:53:13.394Z,8.70
2023-04-15T23:55:40.883Z,8.70
2023-04-15T23:58:08.510Z,8.60
